Limon High School, Colorado
Current Conditions -  °F | °C
As of 2:55 AM on Monday 22 Dec 2014 (Local Time) from KLIC Reporting Station
Overcast Overcast  
Wind Chill: 23°   Ceiling: 10000
Heat Index: 32°   Visibility: 10mi
Dew Point: 27°   Wind: 12mph
Humidity: 82%   Direction: 290°WNW
Pressure: 29.7"   Gusts: NA
Location:  39.26873°N, 103.6892°W
Report Text: KLIC 220955Z AUTO 29010KT 10SM FEW060 OVC100 00/M03 A2970 RMK AO2 SLP042 T00001028
Loading
Personal Weather Stations






























Interactive Weather Map New forecast layout! Learn more

10-Day Weather Forecast

Advertisements
Track Severe Weather on mobile